sensor_id;sensor_type;location;lat;lon;timestamp;temperature;humidity
23497;DHT22;11925;48.122;11.560;2023-06-19T00:01:40;18.00;99.90
23497;DHT22;11925;48.122;11.560;2023-06-19T00:04:09;18.00;99.90
23497;DHT22;11925;48.122;11.560;2023-06-19T00:06:38;18.00;99.90
23497;DHT22;11925;48.122;11.560;2023-06-19T00:09:08;18.00;99.90
23497;DHT22;11925;48.122;11.560;2023-06-19T00:11:36;18.00;99.90
23497;DHT22;11925;48.122;11.560;2023-06-19T00:14:05;18.00;99.90
23497;DHT22;11925;48.122;11.560;2023-06-19T00:16:33;18.00;99.90
23497;DHT22;11925;48.122;11.560;2023-06-19T00:19:02;18.00;99.90
23497;DHT22;11925;48.122;11.560;2023-06-19T00:21:30;18.00;99.90
23497;DHT22;11925;48.122;11.560;2023-06-19T00:23:58;18.00;99.90
23497;DHT22;11925;48.122;11.560;2023-06-19T00:26:28;18.00;99.90
23497;DHT22;11925;48.122;11.560;2023-06-19T00:28:57;18.00;99.90
23497;DHT22;11925;48.122;11.560;2023-06-19T00:31:25;18.00;99.90
23497;DHT22;11925;48.122;11.560;2023-06-19T00:33:55;18.00;99.90
23497;DHT22;11925;48.122;11.560;2023-06-19T00:36:24;17.90;99.90
23497;DHT22;11925;48.122;11.560;2023-06-19T00:38:53;17.90;99.90
23497;DHT22;11925;48.122;11.560;2023-06-19T00:41:21;17.90;99.90
23497;DHT22;11925;48.122;11.560;2023-06-19T00:43:51;17.90;99.90
23497;DHT22;11925;48.122;11.560;2023-06-19T00:46:21;17.90;99.90
23497;DHT22;11925;48.122;11.560;2023-06-19T00:48:49;17.90;99.90
23497;DHT22;11925;48.122;11.560;2023-06-19T00:51:18;17.90;99.90
23497;DHT22;11925;48.122;11.560;2023-06-19T00:53:47;17.90;99.90
23497;DHT22;11925;48.122;11.560;2023-06-19T00:56:15;17.90;99.90
23497;DHT22;11925;48.122;11.560;2023-06-19T00:58:45;17.90;99.90
23497;DHT22;11925;48.122;11.560;2023-06-19T01:01:15;17.90;99.90
23497;DHT22;11925;48.122;11.560;2023-06-19T01:03:44;17.90;99.90
23497;DHT22;11925;48.122;11.560;2023-06-19T01:06:15;17.90;99.90
23497;DHT22;11925;48.122;11.560;2023-06-19T01:08:55;17.90;99.90
23497;DHT22;11925;48.122;11.560;2023-06-19T01:11:29;17.90;99.90
23497;DHT22;11925;48.122;11.560;2023-06-19T01:14:05;17.90;99.90
23497;DHT22;11925;48.122;11.560;2023-06-19T01:16:37;17.90;99.90
23497;DHT22;11925;48.122;11.560;2023-06-19T01:19:10;18.00;99.90
23497;DHT22;11925;48.122;11.560;2023-06-19T01:21:39;17.90;99.90
23497;DHT22;11925;48.122;11.560;2023-06-19T01:24:09;17.90;99.90
23497;DHT22;11925;48.122;11.560;2023-06-19T01:26:39;17.90;99.90
23497;DHT22;11925;48.122;11.560;2023-06-19T01:29:08;17.90;99.90
23497;DHT22;11925;48.122;11.560;2023-06-19T01:31:45;17.90;99.90
23497;DHT22;11925;48.122;11.560;2023-06-19T01:34:15;17.90;99.90
23497;DHT22;11925;48.122;11.560;2023-06-19T01:36:46;17.90;99.90
23497;DHT22;11925;48.122;11.560;2023-06-19T01:39:18;17.90;99.90
23497;DHT22;11925;48.122;11.560;2023-06-19T01:41:47;17.90;99.90
23497;DHT22;11925;48.122;11.560;2023-06-19T01:44:16;17.90;99.90
23497;DHT22;11925;48.122;11.560;2023-06-19T01:46:47;17.90;99.90
23497;DHT22;11925;48.122;11.560;2023-06-19T01:49:16;17.90;99.90
23497;DHT22;11925;48.122;11.560;2023-06-19T01:51:45;17.90;99.90
23497;DHT22;11925;48.122;11.560;2023-06-19T01:54:14;17.90;99.90
23497;DHT22;11925;48.122;11.560;2023-06-19T01:56:43;17.90;99.90
23497;DHT22;11925;48.122;11.560;2023-06-19T01:59:13;17.90;99.90
23497;DHT22;11925;48.122;11.560;2023-06-19T02:01:43;17.90;99.90
23497;DHT22;11925;48.122;11.560;2023-06-19T02:04:11;17.90;99.90
23497;DHT22;11925;48.122;11.560;2023-06-19T02:06:40;17.70;99.90
23497;DHT22;11925;48.122;11.560;2023-06-19T02:09:08;17.90;99.90
23497;DHT22;11925;48.122;11.560;2023-06-19T02:11:38;17.90;99.90
23497;DHT22;11925;48.122;11.560;2023-06-19T02:14:08;17.90;99.90
23497;DHT22;11925;48.122;11.560;2023-06-19T02:16:37;17.90;99.90
23497;DHT22;11925;48.122;11.560;2023-06-19T02:19:08;17.90;99.90
23497;DHT22;11925;48.122;11.560;2023-06-19T02:21:38;17.90;99.90
23497;DHT22;11925;48.122;11.560;2023-06-19T02:24:06;17.90;99.90
23497;DHT22;11925;48.122;11.560;2023-06-19T02:26:35;17.90;99.90
23497;DHT22;11925;48.122;11.560;2023-06-19T02:29:03;17.90;99.90
23497;DHT22;11925;48.122;11.560;2023-06-19T02:31:33;17.90;99.90
23497;DHT22;11925;48.122;11.560;2023-06-19T02:34:01;17.90;99.90
23497;DHT22;11925;48.122;11.560;2023-06-19T02:36:30;17.90;99.90
23497;DHT22;11925;48.122;11.560;2023-06-19T02:38:58;17.90;99.90
23497;DHT22;11925;48.122;11.560;2023-06-19T02:41:27;17.90;99.90
23497;DHT22;11925;48.122;11.560;2023-06-19T02:43:55;17.90;99.90
23497;DHT22;11925;48.122;11.560;2023-06-19T02:46:23;17.90;99.90
23497;DHT22;11925;48.122;11.560;2023-06-19T02:48:53;17.90;99.90
23497;DHT22;11925;48.122;11.560;2023-06-19T02:51:21;17.90;99.90
23497;DHT22;11925;48.122;11.560;2023-06-19T02:53:50;17.90;99.90
23497;DHT22;11925;48.122;11.560;2023-06-19T02:56:18;17.90;99.90
23497;DHT22;11925;48.122;11.560;2023-06-19T02:58:47;17.90;99.90
23497;DHT22;11925;48.122;11.560;2023-06-19T03:01:15;17.90;99.90
23497;DHT22;11925;48.122;11.560;2023-06-19T03:03:44;17.90;99.90
23497;DHT22;11925;48.122;11.560;2023-06-19T03:06:15;17.90;99.90
23497;DHT22;11925;48.122;11.560;2023-06-19T03:08:45;17.90;99.90
23497;DHT22;11925;48.122;11.560;2023-06-19T03:11:13;17.90;99.90
23497;DHT22;11925;48.122;11.560;2023-06-19T03:13:46;17.90;99.90
23497;DHT22;11925;48.122;11.560;2023-06-19T03:16:15;17.90;99.90
23497;DHT22;11925;48.122;11.560;2023-06-19T03:18:44;17.90;99.90
23497;DHT22;11925;48.122;11.560;2023-06-19T03:21:18;17.90;99.90
23497;DHT22;11925;48.122;11.560;2023-06-19T03:23:49;17.90;99.90
23497;DHT22;11925;48.122;11.560;2023-06-19T03:26:20;17.90;99.90
23497;DHT22;11925;48.122;11.560;2023-06-19T03:28:48;17.80;99.90
23497;DHT22;11925;48.122;11.560;2023-06-19T03:31:18;17.90;99.90
23497;DHT22;11925;48.122;11.560;2023-06-19T03:33:46;17.90;99.90
23497;DHT22;11925;48.122;11.560;2023-06-19T03:36:15;17.90;99.90
23497;DHT22;11925;48.122;11.560;2023-06-19T03:38:50;17.90;99.90
23497;DHT22;11925;48.122;11.560;2023-06-19T03:41:21;17.90;99.90
23497;DHT22;11925;48.122;11.560;2023-06-19T03:43:50;17.90;99.90
23497;DHT22;11925;48.122;11.560;2023-06-19T03:46:18;17.90;99.90
23497;DHT22;11925;48.122;11.560;2023-06-19T03:48:47;17.90;99.90
23497;DHT22;11925;48.122;11.560;2023-06-19T03:51:15;17.90;99.90
23497;DHT22;11925;48.122;11.560;2023-06-19T03:53:44;17.90;99.90
23497;DHT22;11925;48.122;11.560;2023-06-19T03:56:13;17.90;99.90
23497;DHT22;11925;48.122;11.560;2023-06-19T03:58:42;17.90;99.90
23497;DHT22;11925;48.122;11.560;2023-06-19T04:01:12;17.90;99.90
23497;DHT22;11925;48.122;11.560;2023-06-19T04:03:40;17.90;99.90
23497;DHT22;11925;48.122;11.560;2023-06-19T04:06:09;17.90;99.90
23497;DHT22;11925;48.122;11.560;2023-06-19T04:08:39;17.90;99.90
23497;DHT22;11925;48.122;11.560;2023-06-19T04:11:12;17.90;99.90
23497;DHT22;11925;48.122;11.560;2023-06-19T04:13:41;17.90;99.90
23497;DHT22;11925;48.122;11.560;2023-06-19T04:16:09;17.90;99.90
23497;DHT22;11925;48.122;11.560;2023-06-19T04:18:38;17.90;99.90
23497;DHT22;11925;48.122;11.560;2023-06-19T04:21:07;17.90;99.90
23497;DHT22;11925;48.122;11.560;2023-06-19T04:23:35;17.90;99.90
23497;DHT22;11925;48.122;11.560;2023-06-19T04:26:04;17.90;99.90
23497;DHT22;11925;48.122;11.560;2023-06-19T04:28:33;17.90;99.90
23497;DHT22;11925;48.122;11.560;2023-06-19T04:31:02;17.90;99.90
23497;DHT22;11925;48.122;11.560;2023-06-19T04:33:30;17.90;99.90
23497;DHT22;11925;48.122;11.560;2023-06-19T04:35:59;17.90;99.90
23497;DHT22;11925;48.122;11.560;2023-06-19T04:38:28;17.90;99.90
23497;DHT22;11925;48.122;11.560;2023-06-19T04:40:56;17.90;99.90
23497;DHT22;11925;48.122;11.560;2023-06-19T04:43:25;17.90;99.90
23497;DHT22;11925;48.122;11.560;2023-06-19T04:45:55;17.90;99.90
23497;DHT22;11925;48.122;11.560;2023-06-19T04:48:23;17.90;99.90
23497;DHT22;11925;48.122;11.560;2023-06-19T04:50:53;17.90;99.90
23497;DHT22;11925;48.122;11.560;2023-06-19T04:53:23;17.90;99.90
23497;DHT22;11925;48.122;11.560;2023-06-19T04:55:52;17.90;99.90
23497;DHT22;11925;48.122;11.560;2023-06-19T04:58:22;17.90;99.90
23497;DHT22;11925;48.122;11.560;2023-06-19T05:00:50;17.90;99.90
23497;DHT22;11925;48.122;11.560;2023-06-19T05:03:21;17.90;99.90
23497;DHT22;11925;48.122;11.560;2023-06-19T05:05:50;17.90;99.90
23497;DHT22;11925;48.122;11.560;2023-06-19T05:08:18;17.90;99.90
23497;DHT22;11925;48.122;11.560;2023-06-19T05:10:47;18.00;99.90
23497;DHT22;11925;48.122;11.560;2023-06-19T05:13:15;18.00;99.90
23497;DHT22;11925;48.122;11.560;2023-06-19T05:15:45;18.00;99.90
23497;DHT22;11925;48.122;11.560;2023-06-19T05:18:14;18.00;99.90
23497;DHT22;11925;48.122;11.560;2023-06-19T05:20:43;18.00;99.90
23497;DHT22;11925;48.122;11.560;2023-06-19T05:23:12;18.00;99.90
23497;DHT22;11925;48.122;11.560;2023-06-19T05:25:40;18.00;99.90
23497;DHT22;11925;48.122;11.560;2023-06-19T05:28:10;18.00;99.90
23497;DHT22;11925;48.122;11.560;2023-06-19T05:30:39;18.00;99.90
23497;DHT22;11925;48.122;11.560;2023-06-19T05:33:07;18.00;99.90
23497;DHT22;11925;48.122;11.560;2023-06-19T05:35:36;18.00;99.90
23497;DHT22;11925;48.122;11.560;2023-06-19T05:38:06;18.00;99.90
23497;DHT22;11925;48.122;11.560;2023-06-19T05:40:34;18.00;99.90
23497;DHT22;11925;48.122;11.560;2023-06-19T05:43:03;18.10;99.90
23497;DHT22;11925;48.122;11.560;2023-06-19T05:45:31;18.10;99.90
23497;DHT22;11925;48.122;11.560;2023-06-19T05:48:00;18.10;99.90
23497;DHT22;11925;48.122;11.560;2023-06-19T05:50:28;18.10;99.90
23497;DHT22;11925;48.122;11.560;2023-06-19T05:52:57;18.10;99.90
23497;DHT22;11925;48.122;11.560;2023-06-19T05:55:27;18.00;99.90
23497;DHT22;11925;48.122;11.560;2023-06-19T05:57:56;18.10;99.90
23497;DHT22;11925;48.122;11.560;2023-06-19T06:00:24;18.10;99.90
23497;DHT22;11925;48.122;11.560;2023-06-19T06:02:53;18.10;99.90
23497;DHT22;11925;48.122;11.560;2023-06-19T06:05:21;18.00;99.90
23497;DHT22;11925;48.122;11.560;2023-06-19T06:07:51;18.00;99.90
23497;DHT22;11925;48.122;11.560;2023-06-19T06:10:20;18.10;99.90
23497;DHT22;11925;48.122;11.560;2023-06-19T06:12:51;18.10;99.90
23497;DHT22;11925;48.122;11.560;2023-06-19T06:15:19;18.10;99.90
23497;DHT22;11925;48.122;11.560;2023-06-19T06:17:47;18.10;99.90
23497;DHT22;11925;48.122;11.560;2023-06-19T06:20:16;18.10;99.90
23497;DHT22;11925;48.122;11.560;2023-06-19T06:22:44;18.10;99.90
23497;DHT22;11925;48.122;11.560;2023-06-19T06:25:13;18.10;99.90
23497;DHT22;11925;48.122;11.560;2023-06-19T06:27:42;18.10;99.90
23497;DHT22;11925;48.122;11.560;2023-06-19T06:30:12;18.10;99.90
23497;DHT22;11925;48.122;11.560;2023-06-19T06:32:43;19.40;99.90
23497;DHT22;11925;48.122;11.560;2023-06-19T06:35:11;18.10;99.90
23497;DHT22;11925;48.122;11.560;2023-06-19T06:37:40;18.10;99.90
23497;DHT22;11925;48.122;11.560;2023-06-19T06:40:08;18.10;99.90
23497;DHT22;11925;48.122;11.560;2023-06-19T06:42:38;18.10;99.90
23497;DHT22;11925;48.122;11.560;2023-06-19T06:45:07;18.10;99.90
23497;DHT22;11925;48.122;11.560;2023-06-19T06:47:37;18.00;99.90
23497;DHT22;11925;48.122;11.560;2023-06-19T06:50:08;18.10;99.90
23497;DHT22;11925;48.122;11.560;2023-06-19T06:52:37;18.10;99.90
23497;DHT22;11925;48.122;11.560;2023-06-19T06:55:07;18.10;99.90
23497;DHT22;11925;48.122;11.560;2023-06-19T06:57:36;18.00;99.90
23497;DHT22;11925;48.122;11.560;2023-06-19T07:00:06;18.00;99.90
23497;DHT22;11925;48.122;11.560;2023-06-19T07:02:38;18.10;99.90
23497;DHT22;11925;48.122;11.560;2023-06-19T07:05:09;18.10;99.90
23497;DHT22;11925;48.122;11.560;2023-06-19T07:07:37;18.10;99.90
23497;DHT22;11925;48.122;11.560;2023-06-19T07:10:06;18.10;99.90
23497;DHT22;11925;48.122;11.560;2023-06-19T07:12:43;18.20;99.90
23497;DHT22;11925;48.122;11.560;2023-06-19T07:15:12;18.20;99.90
23497;DHT22;11925;48.122;11.560;2023-06-19T07:17:42;18.20;99.90
23497;DHT22;11925;48.122;11.560;2023-06-19T07:20:11;18.10;99.90
23497;DHT22;11925;48.122;11.560;2023-06-19T07:22:39;18.10;99.90
23497;DHT22;11925;48.122;11.560;2023-06-19T07:25:10;18.10;99.90
23497;DHT22;11925;48.122;11.560;2023-06-19T07:27:40;18.10;99.90
23497;DHT22;11925;48.122;11.560;2023-06-19T07:30:10;18.20;99.90
23497;DHT22;11925;48.122;11.560;2023-06-19T07:32:44;17.80;99.90
23497;DHT22;11925;48.122;11.560;2023-06-19T07:35:12;18.20;99.90
23497;DHT22;11925;48.122;11.560;2023-06-19T07:37:40;18.20;99.90
23497;DHT22;11925;48.122;11.560;2023-06-19T07:40:10;18.20;99.90
23497;DHT22;11925;48.122;11.560;2023-06-19T07:42:38;18.20;99.90
23497;DHT22;11925;48.122;11.560;2023-06-19T07:45:11;17.70;99.90
23497;DHT22;11925;48.122;11.560;2023-06-19T07:47:39;18.30;99.90
23497;DHT22;11925;48.122;11.560;2023-06-19T07:50:10;18.30;99.90
23497;DHT22;11925;48.122;11.560;2023-06-19T07:52:38;18.30;99.90
23497;DHT22;11925;48.122;11.560;2023-06-19T07:55:07;18.30;99.90
23497;DHT22;11925;48.122;11.560;2023-06-19T07:57:35;18.30;99.90
23497;DHT22;11925;48.122;11.560;2023-06-19T08:00:05;18.30;99.90
23497;DHT22;11925;48.122;11.560;2023-06-19T08:02:38;18.30;99.90
23497;DHT22;11925;48.122;11.560;2023-06-19T08:05:09;18.30;99.90
23497;DHT22;11925;48.122;11.560;2023-06-19T08:07:38;18.30;99.90
23497;DHT22;11925;48.122;11.560;2023-06-19T08:10:07;18.30;99.90
23497;DHT22;11925;48.122;11.560;2023-06-19T08:12:53;18.40;99.90
23497;DHT22;11925;48.122;11.560;2023-06-19T08:15:22;18.40;99.90
23497;DHT22;11925;48.122;11.560;2023-06-19T08:17:50;18.40;99.90
23497;DHT22;11925;48.122;11.560;2023-06-19T08:20:20;18.40;99.90
23497;DHT22;11925;48.122;11.560;2023-06-19T08:22:49;18.40;99.90
23497;DHT22;11925;48.122;11.560;2023-06-19T08:25:18;18.40;99.90
23497;DHT22;11925;48.122;11.560;2023-06-19T08:27:46;18.40;99.90
23497;DHT22;11925;48.122;11.560;2023-06-19T08:30:15;18.50;99.90
23497;DHT22;11925;48.122;11.560;2023-06-19T08:32:43;18.50;99.90
23497;DHT22;11925;48.122;11.560;2023-06-19T08:35:12;18.50;99.90
23497;DHT22;11925;48.122;11.560;2023-06-19T08:37:42;18.50;99.90
23497;DHT22;11925;48.122;11.560;2023-06-19T08:40:12;18.60;99.90
23497;DHT22;11925;48.122;11.560;2023-06-19T08:42:40;18.50;99.90
23497;DHT22;11925;48.122;11.560;2023-06-19T08:45:10;18.50;99.90
23497;DHT22;11925;48.122;11.560;2023-06-19T08:47:43;18.50;99.90
23497;DHT22;11925;48.122;11.560;2023-06-19T08:50:11;18.60;99.90
23497;DHT22;11925;48.122;11.560;2023-06-19T08:52:40;18.50;99.90
23497;DHT22;11925;48.122;11.560;2023-06-19T08:55:10;18.50;99.90
23497;DHT22;11925;48.122;11.560;2023-06-19T08:57:39;18.40;99.90
23497;DHT22;11925;48.122;11.560;2023-06-19T09:00:09;18.50;99.90
23497;DHT22;11925;48.122;11.560;2023-06-19T09:02:40;18.60;99.90
23497;DHT22;11925;48.122;11.560;2023-06-19T09:05:12;18.60;99.90
23497;DHT22;11925;48.122;11.560;2023-06-19T09:07:41;18.50;99.90
23497;DHT22;11925;48.122;11.560;2023-06-19T09:10:16;18.50;99.90
23497;DHT22;11925;48.122;11.560;2023-06-19T09:12:57;18.50;99.90
23497;DHT22;11925;48.122;11.560;2023-06-19T09:15:30;18.50;99.90
23497;DHT22;11925;48.122;11.560;2023-06-19T09:18:04;18.40;99.90
23497;DHT22;11925;48.122;11.560;2023-06-19T09:20:36;18.40;99.90
23497;DHT22;11925;48.122;11.560;2023-06-19T09:23:06;18.40;99.90
23497;DHT22;11925;48.122;11.560;2023-06-19T09:25:45;18.40;99.90
23497;DHT22;11925;48.122;11.560;2023-06-19T09:28:19;18.50;99.90
23497;DHT22;11925;48.122;11.560;2023-06-19T09:30:55;18.40;99.90
23497;DHT22;11925;48.122;11.560;2023-06-19T09:33:26;18.40;99.90
23497;DHT22;11925;48.122;11.560;2023-06-19T09:35:55;18.40;99.90
23497;DHT22;11925;48.122;11.560;2023-06-19T09:38:25;18.40;99.90
23497;DHT22;11925;48.122;11.560;2023-06-19T09:40:57;18.40;99.90
23497;DHT22;11925;48.122;11.560;2023-06-19T09:43:30;18.40;99.90
23497;DHT22;11925;48.122;11.560;2023-06-19T09:46:02;18.30;99.90
23497;DHT22;11925;48.122;11.560;2023-06-19T09:48:33;18.30;99.90
23497;DHT22;11925;48.122;11.560;2023-06-19T09:51:10;18.30;99.90
23497;DHT22;11925;48.122;11.560;2023-06-19T09:53:40;18.30;99.90
23497;DHT22;11925;48.122;11.560;2023-06-19T09:56:12;18.30;99.90
23497;DHT22;11925;48.122;11.560;2023-06-19T09:58:42;18.40;99.90
23497;DHT22;11925;48.122;11.560;2023-06-19T10:01:12;18.40;99.90
23497;DHT22;11925;48.122;11.560;2023-06-19T10:03:45;18.40;99.90
23497;DHT22;11925;48.122;11.560;2023-06-19T10:06:17;18.30;99.90
23497;DHT22;11925;48.122;11.560;2023-06-19T10:08:46;18.40;99.90
23497;DHT22;11925;48.122;11.560;2023-06-19T10:11:18;18.40;99.90
23497;DHT22;11925;48.122;11.560;2023-06-19T10:13:46;18.40;99.90
23497;DHT22;11925;48.122;11.560;2023-06-19T10:16:21;18.30;99.90
23497;DHT22;11925;48.122;11.560;2023-06-19T10:18:50;18.30;99.90
23497;DHT22;11925;48.122;11.560;2023-06-19T10:21:19;18.40;99.90
23497;DHT22;11925;48.122;11.560;2023-06-19T10:23:57;18.40;99.90
23497;DHT22;11925;48.122;11.560;2023-06-19T10:26:32;18.40;99.90
23497;DHT22;11925;48.122;11.560;2023-06-19T10:29:01;18.40;99.90
23497;DHT22;11925;48.122;11.560;2023-06-19T10:31:31;18.30;99.90
23497;DHT22;11925;48.122;11.560;2023-06-19T10:34:00;18.30;99.90
23497;DHT22;11925;48.122;11.560;2023-06-19T10:36:32;18.40;99.90
23497;DHT22;11925;48.122;11.560;2023-06-19T10:39:00;18.30;99.90
23497;DHT22;11925;48.122;11.560;2023-06-19T10:41:30;18.30;99.90
23497;DHT22;11925;48.122;11.560;2023-06-19T10:44:00;18.30;99.90
23497;DHT22;11925;48.122;11.560;2023-06-19T10:46:30;18.30;99.90
23497;DHT22;11925;48.122;11.560;2023-06-19T10:48:59;18.30;99.90
23497;DHT22;11925;48.122;11.560;2023-06-19T10:51:28;18.30;99.90
23497;DHT22;11925;48.122;11.560;2023-06-19T10:53:57;18.30;99.90
23497;DHT22;11925;48.122;11.560;2023-06-19T10:56:26;18.30;99.90
23497;DHT22;11925;48.122;11.560;2023-06-19T10:59:00;18.40;99.90
23497;DHT22;11925;48.122;11.560;2023-06-19T11:01:33;18.40;99.90
23497;DHT22;11925;48.122;11.560;2023-06-19T11:04:04;18.40;99.90
23497;DHT22;11925;48.122;11.560;2023-06-19T11:06:32;18.30;99.90
23497;DHT22;11925;48.122;11.560;2023-06-19T11:09:04;18.30;99.90
23497;DHT22;11925;48.122;11.560;2023-06-19T11:11:37;18.30;99.90
23497;DHT22;11925;48.122;11.560;2023-06-19T11:14:08;18.30;99.90
23497;DHT22;11925;48.122;11.560;2023-06-19T11:16:39;18.30;99.90
23497;DHT22;11925;48.122;11.560;2023-06-19T11:19:08;18.30;99.90
23497;DHT22;11925;48.122;11.560;2023-06-19T11:21:37;18.30;99.90
23497;DHT22;11925;48.122;11.560;2023-06-19T11:24:11;18.30;99.90
23497;DHT22;11925;48.122;11.560;2023-06-19T11:26:40;18.30;99.90
23497;DHT22;11925;48.122;11.560;2023-06-19T11:29:16;18.20;99.90
23497;DHT22;11925;48.122;11.560;2023-06-19T11:31:45;18.20;99.90
23497;DHT22;11925;48.122;11.560;2023-06-19T11:34:15;18.20;99.90
23497;DHT22;11925;48.122;11.560;2023-06-19T11:36:44;18.20;99.90
23497;DHT22;11925;48.122;11.560;2023-06-19T11:39:14;18.20;99.90
23497;DHT22;11925;48.122;11.560;2023-06-19T11:41:44;18.30;99.90
23497;DHT22;11925;48.122;11.560;2023-06-19T11:44:13;18.20;99.90
23497;DHT22;11925;48.122;11.560;2023-06-19T11:46:43;18.20;99.90
23497;DHT22;11925;48.122;11.560;2023-06-19T11:49:12;18.30;99.90
23497;DHT22;11925;48.122;11.560;2023-06-19T11:51:41;18.30;99.90
23497;DHT22;11925;48.122;11.560;2023-06-19T11:54:11;18.20;99.90
23497;DHT22;11925;48.122;11.560;2023-06-19T11:56:40;18.20;99.90
23497;DHT22;11925;48.122;11.560;2023-06-19T11:59:09;18.30;99.90
23497;DHT22;11925;48.122;11.560;2023-06-19T12:01:37;18.40;99.90
23497;DHT22;11925;48.122;11.560;2023-06-19T12:04:07;18.40;99.90
23497;DHT22;11925;48.122;11.560;2023-06-19T12:06:36;18.40;99.90
23497;DHT22;11925;48.122;11.560;2023-06-19T12:09:04;18.40;99.90
23497;DHT22;11925;48.122;11.560;2023-06-19T12:11:33;18.40;99.90
23497;DHT22;11925;48.122;11.560;2023-06-19T12:14:01;18.40;99.90
23497;DHT22;11925;48.122;11.560;2023-06-19T12:16:30;18.30;99.90
23497;DHT22;11925;48.122;11.560;2023-06-19T12:18:58;18.30;99.90
23497;DHT22;11925;48.122;11.560;2023-06-19T12:21:28;18.40;99.90
23497;DHT22;11925;48.122;11.560;2023-06-19T12:24:05;18.40;99.90
23497;DHT22;11925;48.122;11.560;2023-06-19T12:26:34;18.30;99.90
23497;DHT22;11925;48.122;11.560;2023-06-19T12:29:04;18.40;99.90
23497;DHT22;11925;48.122;11.560;2023-06-19T12:31:34;18.40;99.90
23497;DHT22;11925;48.122;11.560;2023-06-19T12:34:03;18.40;99.90
23497;DHT22;11925;48.122;11.560;2023-06-19T12:36:53;18.40;99.90
23497;DHT22;11925;48.122;11.560;2023-06-19T12:39:21;18.40;99.90
23497;DHT22;11925;48.122;11.560;2023-06-19T12:41:50;18.30;99.90
23497;DHT22;11925;48.122;11.560;2023-06-19T12:44:20;18.30;99.90
23497;DHT22;11925;48.122;11.560;2023-06-19T12:46:49;18.30;99.90
23497;DHT22;11925;48.122;11.560;2023-06-19T12:49:17;18.20;99.90
23497;DHT22;11925;48.122;11.560;2023-06-19T12:51:46;18.20;99.90
23497;DHT22;11925;48.122;11.560;2023-06-19T12:54:20;18.20;99.90
23497;DHT22;11925;48.122;11.560;2023-06-19T12:56:48;18.20;99.90
23497;DHT22;11925;48.122;11.560;2023-06-19T12:59:17;18.20;99.90
23497;DHT22;11925;48.122;11.560;2023-06-19T13:01:46;18.20;99.90
23497;DHT22;11925;48.122;11.560;2023-06-19T13:04:15;18.10;99.90
23497;DHT22;11925;48.122;11.560;2023-06-19T13:06:43;18.50;99.90
23497;DHT22;11925;48.122;11.560;2023-06-19T13:09:12;18.20;99.90
23497;DHT22;11925;48.122;11.560;2023-06-19T13:11:42;18.20;99.90
23497;DHT22;11925;48.122;11.560;2023-06-19T13:14:10;18.20;99.90
23497;DHT22;11925;48.122;11.560;2023-06-19T13:16:38;18.20;99.90
23497;DHT22;11925;48.122;11.560;2023-06-19T13:19:13;18.20;99.90
23497;DHT22;11925;48.122;11.560;2023-06-19T13:21:42;18.20;99.90
23497;DHT22;11925;48.122;11.560;2023-06-19T13:24:10;18.10;99.90
23497;DHT22;11925;48.122;11.560;2023-06-19T13:26:39;18.10;99.90
23497;DHT22;11925;48.122;11.560;2023-06-19T13:29:09;18.10;99.90
23497;DHT22;11925;48.122;11.560;2023-06-19T13:31:37;18.10;99.90
23497;DHT22;11925;48.122;11.560;2023-06-19T13:34:06;18.20;99.90
23497;DHT22;11925;48.122;11.560;2023-06-19T13:36:34;18.20;99.90
23497;DHT22;11925;48.122;11.560;2023-06-19T13:39:03;18.20;99.90
23497;DHT22;11925;48.122;11.560;2023-06-19T13:41:32;18.20;99.90
23497;DHT22;11925;48.122;11.560;2023-06-19T13:44:01;18.20;99.90
23497;DHT22;11925;48.122;11.560;2023-06-19T13:46:32;18.30;99.90
23497;DHT22;11925;48.122;11.560;2023-06-19T13:49:00;18.20;99.90
23497;DHT22;11925;48.122;11.560;2023-06-19T13:51:29;18.20;99.90
23497;DHT22;11925;48.122;11.560;2023-06-19T13:53:57;18.20;99.90
23497;DHT22;11925;48.122;11.560;2023-06-19T13:56:26;18.10;99.90
23497;DHT22;11925;48.122;11.560;2023-06-19T13:58:54;18.10;99.90
23497;DHT22;11925;48.122;11.560;2023-06-19T14:01:22;18.10;99.90
23497;DHT22;11925;48.122;11.560;2023-06-19T14:03:53;18.10;99.90
23497;DHT22;11925;48.122;11.560;2023-06-19T14:06:24;18.20;99.90
23497;DHT22;11925;48.122;11.560;2023-06-19T14:08:53;18.10;99.90
23497;DHT22;11925;48.122;11.560;2023-06-19T14:11:25;18.10;99.90
23497;DHT22;11925;48.122;11.560;2023-06-19T14:13:53;18.10;99.90
23497;DHT22;11925;48.122;11.560;2023-06-19T14:16:22;18.10;99.90
23497;DHT22;11925;48.122;11.560;2023-06-19T14:18:50;18.10;99.90
23497;DHT22;11925;48.122;11.560;2023-06-19T14:21:20;18.10;99.90
23497;DHT22;11925;48.122;11.560;2023-06-19T14:23:50;18.10;99.90
23497;DHT22;11925;48.122;11.560;2023-06-19T14:26:18;18.10;99.90
23497;DHT22;11925;48.122;11.560;2023-06-19T14:28:47;18.00;99.90
23497;DHT22;11925;48.122;11.560;2023-06-19T14:31:15;18.00;99.90
23497;DHT22;11925;48.122;11.560;2023-06-19T14:33:43;18.10;99.90
23497;DHT22;11925;48.122;11.560;2023-06-19T14:36:12;18.10;99.90
23497;DHT22;11925;48.122;11.560;2023-06-19T14:38:41;18.00;99.90
23497;DHT22;11925;48.122;11.560;2023-06-19T14:41:10;18.00;99.90
23497;DHT22;11925;48.122;11.560;2023-06-19T14:43:38;18.10;99.90
23497;DHT22;11925;48.122;11.560;2023-06-19T14:46:06;18.10;99.90
23497;DHT22;11925;48.122;11.560;2023-06-19T14:48:35;18.00;99.90
23497;DHT22;11925;48.122;11.560;2023-06-19T14:51:03;18.00;99.90
23497;DHT22;11925;48.122;11.560;2023-06-19T14:53:32;18.10;99.90
23497;DHT22;11925;48.122;11.560;2023-06-19T14:56:02;18.10;99.90
23497;DHT22;11925;48.122;11.560;2023-06-19T14:58:30;18.00;99.90
23497;DHT22;11925;48.122;11.560;2023-06-19T15:00:58;18.00;99.90
23497;DHT22;11925;48.122;11.560;2023-06-19T15:03:27;18.10;99.90
23497;DHT22;11925;48.122;11.560;2023-06-19T15:05:55;18.10;99.90
23497;DHT22;11925;48.122;11.560;2023-06-19T15:08:23;18.10;99.90
23497;DHT22;11925;48.122;11.560;2023-06-19T15:10:52;18.10;99.90
23497;DHT22;11925;48.122;11.560;2023-06-19T15:13:22;18.10;99.90
23497;DHT22;11925;48.122;11.560;2023-06-19T15:15:50;18.10;99.90
23497;DHT22;11925;48.122;11.560;2023-06-19T15:18:19;18.10;99.90
23497;DHT22;11925;48.122;11.560;2023-06-19T15:20:47;18.10;99.90
23497;DHT22;11925;48.122;11.560;2023-06-19T15:23:16;18.10;99.90
23497;DHT22;11925;48.122;11.560;2023-06-19T15:25:47;18.10;99.90
23497;DHT22;11925;48.122;11.560;2023-06-19T15:28:16;18.10;99.90
23497;DHT22;11925;48.122;11.560;2023-06-19T15:30:47;18.10;99.90